createdAt,value
2023-07-12T00:01:19.263Z,26.58
2023-07-12T00:03:47.666Z,27.50
2023-07-12T00:06:18.403Z,25.60
2023-07-12T00:08:47.352Z,26.35
2023-07-12T00:11:18.719Z,28.45
2023-07-12T00:13:48.414Z,25.90
2023-07-12T00:16:23.706Z,26.08
2023-07-12T00:18:52.274Z,25.10
2023-07-12T00:21:24.499Z,24.10
2023-07-12T00:23:54.012Z,24.10
2023-07-12T00:26:29.820Z,25.27
2023-07-12T00:29:02.793Z,28.20
2023-07-12T00:31:33.496Z,25.02
2023-07-12T00:34:01.641Z,26.33
2023-07-12T00:36:32.309Z,26.10
2023-07-12T00:39:01.675Z,24.10
2023-07-12T00:41:44.163Z,30.25
2023-07-12T00:44:19.441Z,26.17
2023-07-12T00:46:50.835Z,26.45
2023-07-12T00:49:18.891Z,24.38
2023-07-12T00:51:54.469Z,23.75
2023-07-12T00:54:26.885Z,27.02
2023-07-12T00:56:55.218Z,27.38
2023-07-12T00:59:29.051Z,25.50
2023-07-12T01:02:01.280Z,25.53
2023-07-12T01:04:33.422Z,26.70
2023-07-12T01:07:01.648Z,27.35
2023-07-12T01:09:30.114Z,28.73
2023-07-12T01:11:58.962Z,25.77
2023-07-12T01:14:28.803Z,23.92
2023-07-12T01:17:00.819Z,30.35
2023-07-12T01:19:30.041Z,28.33
2023-07-12T01:21:59.969Z,24.85
2023-07-12T01:24:30.025Z,25.92
2023-07-12T01:27:02.088Z,26.95
2023-07-12T01:29:31.050Z,27.75
2023-07-12T01:31:59.041Z,33.78
2023-07-12T01:34:27.324Z,25.88
2023-07-12T01:36:56.154Z,26.88
2023-07-12T01:39:26.536Z,27.27
2023-07-12T01:41:54.791Z,27.33
2023-07-12T01:44:22.976Z,30.10
2023-07-12T01:46:51.104Z,25.20
2023-07-12T01:49:19.257Z,27.77
2023-07-12T01:51:47.754Z,29.00
2023-07-12T01:54:15.707Z,29.27
2023-07-12T01:56:45.200Z,27.17
2023-07-12T01:59:13.256Z,36.25
2023-07-12T02:01:41.270Z,28.60
2023-07-12T02:04:09.323Z,31.63
2023-07-12T02:06:37.358Z,31.63
2023-07-12T02:09:05.368Z,30.60
2023-07-12T02:11:33.437Z,35.63
2023-07-12T02:14:02.879Z,32.60
2023-07-12T02:16:31.096Z,29.23
2023-07-12T02:18:59.150Z,33.22
2023-07-12T02:21:27.140Z,31.23
2023-07-12T02:23:55.380Z,34.28
2023-07-12T02:26:25.651Z,33.97
2023-07-12T02:28:53.766Z,31.38
2023-07-12T02:31:25.231Z,28.92
2023-07-12T02:33:53.898Z,33.63
2023-07-12T02:36:21.953Z,32.30
2023-07-12T02:38:50.027Z,32.53
2023-07-12T02:41:18.150Z,32.95
2023-07-12T02:43:46.869Z,33.80
2023-07-12T02:46:15.519Z,32.22
2023-07-12T02:48:46.079Z,32.58
2023-07-12T02:51:14.288Z,31.77
2023-07-12T02:53:42.424Z,30.92
2023-07-12T02:56:11.052Z,27.92
2023-07-12T02:58:39.728Z,27.02
2023-07-12T03:01:08.712Z,30.65
2023-07-12T03:03:37.143Z,34.72
2023-07-12T03:06:09.395Z,35.45
2023-07-12T03:08:37.625Z,34.97
2023-07-12T03:11:06.541Z,31.90
2023-07-12T03:13:35.247Z,40.00
2023-07-12T03:16:05.175Z,32.85
2023-07-12T03:18:33.439Z,34.05
2023-07-12T03:21:02.266Z,36.75
2023-07-12T03:23:33.421Z,37.00
2023-07-12T03:26:01.765Z,43.10
2023-07-12T03:28:30.470Z,40.40
2023-07-12T03:30:59.813Z,35.92
2023-07-12T03:33:28.126Z,40.05
2023-07-12T03:35:56.326Z,36.85
2023-07-12T03:38:26.500Z,33.03
2023-07-12T03:40:57.020Z,36.38
2023-07-12T03:43:25.327Z,31.35
2023-07-12T03:45:53.410Z,36.30
2023-07-12T03:48:22.135Z,36.20
2023-07-12T03:50:51.370Z,37.05
2023-07-12T03:53:20.215Z,33.08
2023-07-12T03:55:49.105Z,30.52
2023-07-12T03:58:21.670Z,31.40
2023-07-12T04:00:50.762Z,34.60
2023-07-12T04:03:19.863Z,30.98
2023-07-12T04:05:52.283Z,33.75
2023-07-12T04:08:21.073Z,32.13
2023-07-12T04:10:52.698Z,30.92
2023-07-12T04:13:22.715Z,32.97
2023-07-12T04:15:52.359Z,35.15
2023-07-12T04:18:20.630Z,31.33
2023-07-12T04:20:48.990Z,40.50
2023-07-12T04:23:17.095Z,32.53
2023-07-12T04:25:45.033Z,34.42
2023-07-12T04:28:19.024Z,31.35
2023-07-12T04:30:48.442Z,33.42
2023-07-12T04:33:16.540Z,35.13
2023-07-12T04:35:44.543Z,35.17
2023-07-12T04:38:12.582Z,36.97
2023-07-12T04:40:40.666Z,38.60
2023-07-12T04:43:08.797Z,42.15
2023-07-12T04:45:36.839Z,33.33
2023-07-12T04:48:08.435Z,38.03
2023-07-12T04:50:36.998Z,34.47
2023-07-12T04:53:05.413Z,35.13
2023-07-12T04:55:33.903Z,35.97
2023-07-12T04:58:01.880Z,33.20
2023-07-12T05:00:29.930Z,32.28
2023-07-12T05:02:57.956Z,35.22
2023-07-12T05:05:27.439Z,36.03
2023-07-12T05:07:55.541Z,34.45
2023-07-12T05:10:23.882Z,33.75
2023-07-12T05:12:52.119Z,31.27
2023-07-12T05:15:20.412Z,29.38
2023-07-12T05:17:48.687Z,31.67
2023-07-12T05:20:18.144Z,31.45
2023-07-12T05:22:48.685Z,30.38
2023-07-12T05:25:17.389Z,34.42
2023-07-12T05:27:45.609Z,38.22
2023-07-12T05:30:14.217Z,34.17
2023-07-12T05:32:42.399Z,35.83
2023-07-12T05:35:11.379Z,35.72
2023-07-12T05:37:39.331Z,32.35
2023-07-12T05:40:12.213Z,30.98
2023-07-12T05:42:42.522Z,29.33
2023-07-12T05:45:14.521Z,31.48
2023-07-12T05:47:47.114Z,29.35
2023-07-12T05:50:17.182Z,33.13
2023-07-12T05:52:51.580Z,36.00
2023-07-12T05:55:21.206Z,39.15
2023-07-12T05:57:50.299Z,36.55
2023-07-12T06:00:19.242Z,36.22
2023-07-12T06:02:50.158Z,32.65
2023-07-12T06:05:32.441Z,28.95
2023-07-12T06:08:00.524Z,31.13
2023-07-12T06:10:33.328Z,35.20
2023-07-12T06:13:22.693Z,38.53
2023-07-12T06:16:10.271Z,34.58
2023-07-12T06:21:43.272Z,28.77
2023-07-12T06:24:11.549Z,28.98
2023-07-12T06:33:22.188Z,23.92
2023-07-12T06:35:52.777Z,20.67
2023-07-12T06:38:20.716Z,23.65
2023-07-12T06:40:48.848Z,29.40
2023-07-12T06:43:18.228Z,22.73
2023-07-12T06:45:46.730Z,22.27
2023-07-12T06:48:14.891Z,29.02
2023-07-12T06:50:42.959Z,25.52
2023-07-12T06:53:10.937Z,23.23
2023-07-12T06:55:44.548Z,27.27
2023-07-12T06:58:13.115Z,29.17
2023-07-12T07:00:43.864Z,23.85
2023-07-12T07:03:13.057Z,25.42
2023-07-12T07:05:43.854Z,33.33
2023-07-12T07:08:13.741Z,27.38
2023-07-12T07:10:44.400Z,23.23
2023-07-12T07:13:13.124Z,20.58
2023-07-12T07:15:42.470Z,22.42
2023-07-12T07:18:13.535Z,25.35
2023-07-12T07:20:42.092Z,19.40
2023-07-12T07:23:10.920Z,22.08
2023-07-12T07:25:39.102Z,23.40
2023-07-12T07:28:07.149Z,27.98
2023-07-12T07:30:35.191Z,19.02
2023-07-12T07:33:04.725Z,24.08
2023-07-12T07:35:33.225Z,17.08
2023-07-12T07:38:01.454Z,22.73
2023-07-12T07:40:29.597Z,13.18
2023-07-12T07:42:57.841Z,19.48
2023-07-12T07:45:26.258Z,19.58
2023-07-12T07:47:54.370Z,22.65
2023-07-12T07:50:23.784Z,20.42
2023-07-12T07:52:54.256Z,18.67
2023-07-12T07:55:22.642Z,18.77
2023-07-12T07:57:50.775Z,20.10
2023-07-12T08:00:18.965Z,18.85
2023-07-12T08:02:48.401Z,19.67
2023-07-12T08:05:16.897Z,20.67
2023-07-12T08:07:48.535Z,24.10
2023-07-12T08:10:19.679Z,18.20
2023-07-12T08:12:47.925Z,14.85
2023-07-12T08:15:16.226Z,14.73
2023-07-12T08:17:44.713Z,18.05
2023-07-12T08:20:13.243Z,18.40
2023-07-12T08:22:41.371Z,19.65
2023-07-12T08:25:11.429Z,18.95
2023-07-12T08:27:39.708Z,16.75
2023-07-12T08:30:09.428Z,18.73
2023-07-12T08:32:37.861Z,17.33
2023-07-12T08:35:06.533Z,17.35
2023-07-12T08:37:34.518Z,16.55
2023-07-12T08:40:02.619Z,17.00
2023-07-12T08:42:39.949Z,15.23
2023-07-12T08:45:23.317Z,17.83
2023-07-12T08:47:54.749Z,15.38
2023-07-12T08:50:23.459Z,15.25
2023-07-12T08:52:51.607Z,16.08
2023-07-12T08:55:21.961Z,17.92
2023-07-12T08:57:56.147Z,17.08
2023-07-12T09:00:27.782Z,17.75
2023-07-12T09:02:56.252Z,15.85
2023-07-12T09:05:26.420Z,16.08
2023-07-12T09:07:57.188Z,14.50
2023-07-12T09:10:33.479Z,14.73
2023-07-12T09:13:03.874Z,14.25
2023-07-12T09:15:38.841Z,13.05
2023-07-12T09:18:09.727Z,14.23
2023-07-12T09:20:41.888Z,15.52
2023-07-12T09:23:14.778Z,15.60
2023-07-12T09:25:48.663Z,18.10
2023-07-12T09:28:18.064Z,14.25
2023-07-12T09:30:45.976Z,13.27
2023-07-12T09:33:20.902Z,11.50
2023-07-12T09:35:51.135Z,14.50
2023-07-12T09:38:21.073Z,12.27
2023-07-12T09:40:50.857Z,14.52
2023-07-12T09:43:22.070Z,18.02
2023-07-12T09:46:12.319Z,12.23
2023-07-12T09:48:47.076Z,15.40
2023-07-12T09:53:54.502Z,14.70
2023-07-12T09:56:29.168Z,18.17
2023-07-12T09:59:05.358Z,12.68
2023-07-12T10:01:41.007Z,14.40
2023-07-12T10:04:32.587Z,16.63
2023-07-12T10:07:00.956Z,17.73
2023-07-12T10:09:33.926Z,12.00
2023-07-12T10:12:10.855Z,13.73
2023-07-12T10:14:44.026Z,12.95
2023-07-12T10:17:19.815Z,11.73
2023-07-12T10:19:53.398Z,12.05
2023-07-12T10:22:27.607Z,13.15
2023-07-12T10:24:56.117Z,13.38
2023-07-12T10:27:26.225Z,13.68
2023-07-12T10:29:59.893Z,11.02
2023-07-12T10:32:32.024Z,10.55
2023-07-12T10:35:12.834Z,12.50
2023-07-12T10:37:47.374Z,13.55
2023-07-12T10:40:18.349Z,12.05
2023-07-12T10:42:52.116Z,12.85
2023-07-12T10:45:28.206Z,13.63
2023-07-12T10:47:57.860Z,11.13
2023-07-12T10:50:30.998Z,14.20
2023-07-12T10:53:05.247Z,14.17
2023-07-12T10:55:44.226Z,14.63
2023-07-12T10:58:43.479Z,16.40
2023-07-12T11:01:34.630Z,35.80
2023-07-12T11:04:11.140Z,45.67
2023-07-12T11:06:57.075Z,31.67
2023-07-12T11:09:26.488Z,18.08
2023-07-12T11:12:06.496Z,14.85
2023-07-12T11:14:51.437Z,23.20
2023-07-12T11:17:23.891Z,15.18
2023-07-12T11:20:10.966Z,11.55
2023-07-12T11:22:57.712Z,17.38
2023-07-12T11:25:35.679Z,13.45
2023-07-12T11:28:06.048Z,14.27
2023-07-12T11:30:45.208Z,12.07
2023-07-12T11:33:31.555Z,15.38
2023-07-12T11:36:04.120Z,13.48
2023-07-12T11:38:34.497Z,13.48
2023-07-12T11:41:06.255Z,12.20
2023-07-12T11:43:37.278Z,12.73
2023-07-12T11:46:14.657Z,9.93
2023-07-12T11:48:48.559Z,9.15
2023-07-12T11:51:21.260Z,7.40
2023-07-12T11:53:57.609Z,4.50
2023-07-12T11:56:26.533Z,10.77
2023-07-12T11:58:54.774Z,8.05
2023-07-12T12:01:23.503Z,9.10
2023-07-12T12:03:54.459Z,7.10
2023-07-12T12:06:22.839Z,14.23
2023-07-12T12:08:55.734Z,9.98
2023-07-12T12:11:23.941Z,6.40
2023-07-12T12:13:54.423Z,9.48
2023-07-12T12:16:28.113Z,11.57
2023-07-12T12:19:00.750Z,11.07
2023-07-12T12:21:29.898Z,7.78
2023-07-12T12:24:00.199Z,7.03
2023-07-12T12:26:30.814Z,7.80
2023-07-12T12:29:00.984Z,4.28
2023-07-12T12:31:31.307Z,5.40
2023-07-12T12:34:14.686Z,5.38
2023-07-12T12:36:58.541Z,7.68
2023-07-12T12:39:26.613Z,5.10
2023-07-12T12:41:56.816Z,5.20
2023-07-12T12:44:30.379Z,5.35
2023-07-12T12:47:05.300Z,6.18
2023-07-12T12:55:01.107Z,7.38
2023-07-12T13:09:02.778Z,7.22
2023-07-12T13:18:23.711Z,7.22
2023-07-12T13:20:51.786Z,4.20
2023-07-12T13:25:52.587Z,7.55
2023-07-12T13:28:22.858Z,7.47
2023-07-12T13:30:50.971Z,4.60
2023-07-12T13:33:19.724Z,5.68
2023-07-12T13:45:53.521Z,6.05
2023-07-12T13:48:23.637Z,5.00
2023-07-12T13:50:51.810Z,6.22
2023-07-12T13:53:21.233Z,6.65
2023-07-12T13:58:31.407Z,6.45
2023-07-12T14:03:34.423Z,8.18
2023-07-12T14:06:05.999Z,5.40
2023-07-12T14:08:38.103Z,5.75
2023-07-12T14:11:08.326Z,7.10
2023-07-12T14:13:36.249Z,5.28
2023-07-12T14:16:04.137Z,7.28
2023-07-12T14:18:32.176Z,9.45
2023-07-12T14:21:00.209Z,9.43
2023-07-12T14:23:30.388Z,6.22
2023-07-12T14:25:59.795Z,6.53
2023-07-12T14:28:27.762Z,6.65
2023-07-12T14:33:33.002Z,5.05
2023-07-12T14:36:01.115Z,7.28
2023-07-12T14:38:29.193Z,7.32
2023-07-12T14:40:57.307Z,4.82
2023-07-12T14:43:26.709Z,6.05
2023-07-12T14:45:55.479Z,5.75
2023-07-12T14:48:23.455Z,7.18
2023-07-12T14:50:52.025Z,7.72
2023-07-12T14:53:22.540Z,7.72
2023-07-12T14:55:50.747Z,6.43
2023-07-12T14:58:21.275Z,5.75
2023-07-12T15:00:51.729Z,5.95
2023-07-12T15:03:22.211Z,6.10
2023-07-12T15:05:52.107Z,9.48
2023-07-12T15:08:29.937Z,8.80
2023-07-12T15:10:59.495Z,6.82
2023-07-12T15:13:28.194Z,6.40
2023-07-12T15:15:57.615Z,7.25
2023-07-12T15:18:27.921Z,7.57
2023-07-12T15:21:00.714Z,6.30
2023-07-12T15:23:33.420Z,9.30
2023-07-12T15:26:02.410Z,11.00
2023-07-12T15:28:32.898Z,8.50
2023-07-12T15:31:02.376Z,7.07
2023-07-12T15:33:30.825Z,8.90
2023-07-12T15:36:03.897Z,9.48
2023-07-12T15:38:32.798Z,7.85
2023-07-12T15:41:03.066Z,10.10
2023-07-12T15:43:34.659Z,7.38
2023-07-12T15:46:05.731Z,8.23
2023-07-12T15:48:35.777Z,7.97
2023-07-12T15:51:10.481Z,11.75
2023-07-12T15:53:38.816Z,8.40
2023-07-12T15:56:07.443Z,35.28
2023-07-12T15:58:35.904Z,8.52
2023-07-12T16:01:07.281Z,11.82
2023-07-12T16:03:38.660Z,10.40
2023-07-12T16:06:09.449Z,7.18
2023-07-12T16:08:37.981Z,9.63
2023-07-12T16:11:18.343Z,11.60
2023-07-12T16:13:59.138Z,8.05
2023-07-12T16:16:33.591Z,11.15
2023-07-12T16:19:02.179Z,11.05
2023-07-12T16:21:32.959Z,11.38
2023-07-12T16:24:01.791Z,11.70
2023-07-12T16:26:32.489Z,9.02
2023-07-12T16:29:01.520Z,12.93
2023-07-12T16:31:36.815Z,11.18
2023-07-12T16:34:12.694Z,16.33
2023-07-12T16:36:40.627Z,17.10
2023-07-12T16:39:09.862Z,17.10
2023-07-12T16:41:38.842Z,17.70
2023-07-12T16:44:07.209Z,18.08
2023-07-12T16:46:36.654Z,18.60
2023-07-12T16:49:06.178Z,18.95
2023-07-12T16:51:49.937Z,18.30
2023-07-12T16:54:17.980Z,16.92
2023-07-12T16:56:45.980Z,18.10
2023-07-12T16:59:13.838Z,19.08
2023-07-12T17:01:43.311Z,14.23
2023-07-12T17:04:13.558Z,13.23
2023-07-12T17:06:41.946Z,17.70
2023-07-12T17:09:19.826Z,15.10
2023-07-12T17:11:48.752Z,17.42
2023-07-12T17:14:16.927Z,16.27
2023-07-12T17:16:46.638Z,15.05
2023-07-12T17:19:14.552Z,19.73
2023-07-12T17:21:43.251Z,18.83
2023-07-12T17:24:14.594Z,14.85
2023-07-12T17:26:42.867Z,11.38
2023-07-12T17:29:12.478Z,14.90
2023-07-12T17:31:43.411Z,17.38
2023-07-12T17:34:20.863Z,30.38
2023-07-12T17:36:48.825Z,23.65
2023-07-12T17:39:16.920Z,23.25
2023-07-12T17:41:45.672Z,28.77
2023-07-12T17:44:17.596Z,26.73
2023-07-12T18:38:32.131Z,25.10
2023-07-12T18:41:00.191Z,23.48
2023-07-12T18:43:28.118Z,19.73
2023-07-12T18:45:56.074Z,14.10
2023-07-12T18:48:24.038Z,24.13
2023-07-12T18:50:51.947Z,19.70
2023-07-12T18:53:21.534Z,25.83
2023-07-12T18:55:51.262Z,21.83
2023-07-12T19:10:36.679Z,28.02
2023-07-12T19:13:04.884Z,21.92
2023-07-12T19:15:33.361Z,21.95
